Time;durP1;ratioP1;P1;durP2;ratioP2;P2;SDS_P1;SDS_P2;PMS_P1;PMS_P2;Temp;Humidity;BMP_temperature;BMP_pressure;BME280_temperature;BME280_humidity;BME280_pressure;Samples;Min_cycle;Max_cycle;Signal;HPM_P1;HPM_P2
2021/06/02 00:00:28;;;;;;;2.20;1.17;;;;;;;23.90;43.56;95015.69;4951483;28;20487;-71
2021/06/02 00:02:59;;;;;;;1.60;1.23;;;;;;;23.89;43.74;95014.22;4960906;28;20046;-71
2021/06/02 00:05:24;;;;;;;1.90;1.05;;;;;;;23.86;43.25;95020.69;4952910;28;20054;-71
2021/06/02 00:07:50;;;;;;;1.40;1.10;;;;;;;23.86;43.78;95009.78;4969985;28;20030;-71
2021/06/02 00:10:16;;;;;;;1.85;1.10;;;;;;;23.71;43.65;94986.16;4969113;28;20027;-69
2021/06/02 00:12:42;;;;;;;1.90;1.25;;;;;;;23.62;43.87;94972.84;4967654;28;20033;-72
2021/06/02 00:15:08;;;;;;;2.05;1.10;;;;;;;23.60;43.49;94964.44;4968583;28;20019;-72
2021/06/02 00:17:34;;;;;;;2.00;1.13;;;;;;;23.81;43.47;94995.47;4969000;28;20035;-72
2021/06/02 00:19:59;;;;;;;1.48;1.10;;;;;;;23.84;43.38;94999.88;4951686;28;20046;-72
2021/06/02 00:22:25;;;;;;;1.60;1.10;;;;;;;23.86;43.09;94997.41;4968512;28;20519;-71
2021/06/02 00:24:50;;;;;;;1.58;1.00;;;;;;;23.84;43.45;94991.72;4968970;28;20502;-72
2021/06/02 00:27:16;;;;;;;1.45;0.98;;;;;;;23.68;43.59;94970.84;4950991;28;20558;-71
2021/06/02 00:29:44;;;;;;;1.50;1.02;;;;;;;23.80;43.82;94999.47;4935439;28;20023;-72
2021/06/02 00:32:09;;;;;;;1.38;0.90;;;;;;;23.81;43.35;95001.69;4951727;28;20423;-72
2021/06/02 00:34:35;;;;;;;1.90;0.88;;;;;;;23.78;43.69;94996.47;4968307;28;20031;-72
2021/06/02 00:37:02;;;;;;;1.10;0.70;;;;;;;23.78;43.50;94996.47;4968416;28;20023;-71
2021/06/02 00:39:28;;;;;;;1.63;0.95;;;;;;;23.73;43.29;94994.56;4950886;28;20074;-71
2021/06/02 00:41:53;;;;;;;1.48;0.93;;;;;;;23.69;43.85;94994.09;4950978;28;20027;-71
2021/06/02 00:44:19;;;;;;;1.27;0.90;;;;;;;23.75;43.42;95002.97;4951459;28;20030;-71
2021/06/02 00:46:45;;;;;;;1.25;0.85;;;;;;;23.73;43.40;95000.75;4968522;28;20066;-72
2021/06/02 00:49:24;;;;;;;1.10;0.88;;;;;;;23.74;43.74;94996.06;4968588;28;20023;-72
2021/06/02 00:52:00;;;;;;;1.65;0.77;;;;;;;23.70;43.53;95006.50;4951409;28;20039;-72
2021/06/02 00:54:26;;;;;;;1.40;0.80;;;;;;;23.69;43.64;94999.56;4968403;28;20022;-72
2021/06/02 00:56:53;;;;;;;1.50;0.85;;;;;;;23.56;43.58;94985.78;4968426;28;20093;-72
2021/06/02 00:59:23;;;;;;;1.83;1.00;;;;;;;23.40;43.89;94959.44;4968892;28;20043;-72
2021/06/02 01:01:48;;;;;;;1.03;0.70;;;;;;;23.69;43.52;95003.03;4950664;28;20031;-72
2021/06/02 01:04:14;;;;;;;1.10;0.70;;;;;;;23.68;43.43;95004.28;4967126;28;20051;-71
2021/06/02 01:06:40;;;;;;;1.40;0.75;;;;;;;23.69;43.81;95005.00;4950987;28;20031;-72
2021/06/02 01:09:06;;;;;;;1.52;0.85;;;;;;;23.66;43.68;95009.50;4951003;28;20023;-72
2021/06/02 01:11:31;;;;;;;1.40;0.77;;;;;;;23.12;43.62;94931.72;4972228;28;20027;-72
2021/06/02 01:13:57;;;;;;;1.30;0.75;;;;;;;23.65;43.88;95010.03;4972130;28;20039;-71
2021/06/02 01:16:31;;;;;;;1.10;0.80;;;;;;;23.65;43.72;95020.94;4972089;28;20030;-72
2021/06/02 01:18:56;;;;;;;1.42;0.80;;;;;;;23.63;43.89;95012.47;4971983;28;20510;-72
2021/06/02 01:21:24;;;;;;;1.50;0.90;;;;;;;23.65;43.43;95010.03;4969568;28;20134;-71
2021/06/02 01:23:57;;;;;;;1.00;0.60;;;;;;;23.62;44.04;95006.28;4972129;28;20182;-72
2021/06/02 01:26:24;;;;;;;1.20;0.80;;;;;;;23.14;43.64;94939.38;4955082;28;20574;-72
2021/06/02 01:28:50;;;;;;;1.85;0.80;;;;;;;23.61;43.68;95004.06;4970889;28;20557;-71
2021/06/02 01:31:29;;;;;;;1.30;0.80;;;;;;;23.62;43.42;95000.09;4954476;28;20457;-72
2021/06/02 01:34:39;;;;;;;1.15;0.70;;;;;;;23.61;44.01;95009.53;4971815;28;20062;-72
2021/06/02 01:37:41;;;;;;;1.35;0.90;;;;;;;23.57;44.00;95003.59;4911775;29;20103;-72
2021/06/02 01:40:30;;;;;;;1.10;0.65;;;;;;;23.57;44.01;95009.06;4911186;29;20032;-71
2021/06/02 01:43:21;;;;;;;1.33;0.90;;;;;;;23.55;43.90;95006.84;4931356;28;20074;-72
2021/06/02 01:46:09;;;;;;;1.00;0.70;;;;;;;23.57;44.14;95017.25;4967576;28;20125;-72
2021/06/02 01:48:44;;;;;;;1.40;0.98;;;;;;;23.56;43.93;95013.06;4938519;28;20391;-72
2021/06/02 01:51:44;;;;;;;1.20;0.70;;;;;;;23.56;43.53;95010.31;4971601;28;20027;-71
2021/06/02 01:54:29;;;;;;;0.90;0.60;;;;;;;23.57;44.05;95009.06;4970485;28;20042;-71
2021/06/02 01:57:07;;;;;;;1.20;0.60;;;;;;;23.57;43.75;95014.50;4960838;28;20049;-71
2021/06/02 01:59:38;;;;;;;1.30;0.63;;;;;;;23.56;43.51;95013.06;4971645;28;20070;-72
2021/06/02 02:02:57;;;;;;;1.10;0.60;;;;;;;22.99;43.57;94917.25;4971788;28;20099;-71
2021/06/02 02:05:58;;;;;;;1.05;0.70;;;;;;;23.56;44.00;95018.50;4892572;29;20550;-71
2021/06/02 02:08:44;;;;;;;1.35;0.63;;;;;;;23.53;43.76;95003.16;4955631;29;20039;-71
2021/06/02 02:11:35;;;;;;;1.23;0.77;;;;;;;23.51;43.60;95011.09;4939631;29;20031;-71
2021/06/02 02:14:32;;;;;;;0.65;0.60;;;;;;;23.52;43.71;95015.31;4956248;28;20049;-69
2021/06/02 02:17:19;;;;;;;1.00;0.60;;;;;;;23.52;44.09;95012.59;4955738;28;20035;-71
2021/06/02 02:20:03;;;;;;;0.80;0.60;;;;;;;23.51;43.66;95016.56;4960230;28;20121;-71
2021/06/02 02:23:10;;;;;;;0.68;0.50;;;;;;;23.51;43.87;95022.00;4970351;28;20026;-71
2021/06/02 02:26:00;;;;;;;0.80;0.60;;;;;;;23.51;44.02;95024.72;4958148;28;20155;-70
2021/06/02 02:28:44;;;;;;;;;;;;;;;23.49;43.82;95027.22;4971388;28;20117;-70
2021/06/02 02:31:43;;;;;;;1.20;0.60;;;;;;;23.51;44.04;95027.47;4970281;28;20028;-70
2021/06/02 02:34:15;;;;;;;1.13;0.70;;;;;;;23.49;43.71;95030.69;4967369;28;20039;-70
2021/06/02 02:36:41;;;;;;;1.30;0.80;;;;;;;23.50;43.46;95031.44;4970426;28;20042;-70
2021/06/02 02:39:23;;;;;;;0.95;0.50;;;;;;;23.52;43.61;95034.41;4968912;28;20039;-70
2021/06/02 02:41:57;;;;;;;1.20;0.70;;;;;;;23.47;43.69;95040.66;4970651;28;20025;-71
2021/06/02 02:44:44;;;;;;;1.17;0.63;;;;;;;23.49;44.03;95040.88;4969860;28;20031;-71
2021/06/02 02:47:26;;;;;;;0.95;0.60;;;;;;;23.48;43.84;95039.38;4970281;28;20043;-70
2021/06/02 02:50:17;;;;;;;1.13;0.60;;;;;;;23.45;43.96;95041.16;4970935;28;20031;-70
2021/06/02 02:53:02;;;;;;;1.30;0.70;;;;;;;23.44;43.82;95050.56;4963856;28;20517;-71
2021/06/02 02:55:27;;;;;;;0.70;0.60;;;;;;;23.44;44.01;95044.38;4971068;28;20031;-70
2021/06/02 02:58:16;;;;;;;0.95;0.65;;;;;;;23.47;44.05;95054.28;4970212;28;20655;-71
2021/06/02 03:00:43;;;;;;;1.20;0.70;;;;;;;23.42;43.79;95053.06;4952315;28;20046;-70
2021/06/02 03:03:16;;;;;;;1.00;0.73;;;;;;;22.82;43.67;94956.69;4968646;28;20046;-71
2021/06/02 03:05:52;;;;;;;0.98;0.70;;;;;;;23.45;43.82;95045.84;4966704;28;20038;-70
2021/06/02 03:08:21;;;;;;;1.05;0.60;;;;;;;23.47;44.05;95048.81;4951611;28;20034;-72
2021/06/02 03:10:54;;;;;;;1.05;0.70;;;;;;;23.48;44.23;95050.28;4936135;28;20034;-72
2021/06/02 03:13:28;;;;;;;1.98;0.90;;;;;;;23.23;44.49;95013.34;4951498;28;20031;-72
2021/06/02 03:15:59;;;;;;;1.10;0.70;;;;;;;22.68;44.29;94941.47;4919228;28;20907;-73
2021/06/02 03:18:31;;;;;;;1.00;0.60;;;;;;;23.40;44.41;95055.53;4935927;28;20514;-72
2021/06/02 03:21:28;;;;;;;1.05;0.70;;;;;;;23.43;44.49;95059.97;4951718;28;20120;-72
2021/06/02 03:24:09;;;;;;;1.08;0.50;;;;;;;23.48;44.34;95055.72;4964697;28;20037;-71
2021/06/02 03:26:37;;;;;;;0.93;0.63;;;;;;;23.48;44.60;95051.03;4968025;28;20058;-72
2021/06/02 03:29:15;;;;;;;0.75;0.52;;;;;;;23.61;44.21;95064.06;4966739;28;20533;-72
2021/06/02 03:32:00;;;;;;;1.30;0.70;;;;;;;23.68;44.63;95063.53;4967298;28;20164;-72
2021/06/02 03:34:50;;;;;;;1.25;0.70;;;;;;;23.77;44.32;95071.38;4966275;28;20466;-73
2021/06/02 03:37:27;;;;;;;1.00;0.60;;;;;;;23.86;43.59;95072.50;4967425;28;20490;-73
2021/06/02 03:40:17;;;;;;;0.90;0.70;;;;;;;23.95;44.16;95066.72;4967935;28;20053;-73
2021/06/02 03:43:10;;;;;;;0.82;0.63;;;;;;;24.06;43.35;95082.22;4965818;28;20041;-73
2021/06/02 03:45:48;;;;;;;0.80;0.68;;;;;;;24.16;43.45;95091.56;4965778;28;20126;-74
2021/06/02 03:48:16;;;;;;;0.95;0.50;;;;;;;24.28;42.75;95090.91;4966892;28;20110;-73
2021/06/02 03:50:44;;;;;;;1.00;0.63;;;;;;;24.33;43.21;95089.41;4966229;28;20091;-73
2021/06/02 03:53:11;;;;;;;1.73;0.70;;;;;;;24.41;43.07;95088.34;4966764;28;20030;-73
2021/06/02 03:55:44;;;;;;;2.47;0.70;;;;;;;24.54;42.56;95094.63;4966620;28;20058;-73
2021/06/02 03:58:23;;;;;;;0.77;0.50;;;;;;;24.58;42.32;95099.78;4967212;28;20045;-71
2021/06/02 04:00:51;;;;;;;1.13;0.68;;;;;;;24.48;42.25;95080.31;4966246;28;20533;-73
2021/06/02 04:03:25;;;;;;;0.75;0.50;;;;;;;24.82;42.31;95102.47;4934078;28;20062;-72
2021/06/02 04:05:58;;;;;;;1.52;0.60;;;;;;;24.86;41.93;95098.91;4950232;28;20047;-72
2021/06/02 04:08:50;;;;;;;1.38;0.50;;;;;;;24.90;41.96;95104.84;4950358;28;20034;-74
2021/06/02 04:11:18;;;;;;;1.73;0.70;;;;;;;24.31;41.73;95005.28;4950029;28;20031;-72
2021/06/02 04:14:05;;;;;;;1.08;0.60;;;;;;;25.03;41.51;95115.84;4950880;28;20497;-74
2021/06/02 04:16:36;;;;;;;1.02;0.73;;;;;;;25.17;41.34;95117.41;4963223;28;20045;-74
2021/06/02 04:19:06;;;;;;;0.82;0.50;;;;;;;25.21;41.00;95098.69;4962700;28;20405;-73
2021/06/02 04:21:36;;;;;;;0.50;0.40;;;;;;;25.35;41.11;95111.16;4961835;28;20135;-72
2021/06/02 04:24:06;;;;;;;0.90;0.60;;;;;;;25.45;41.12;95115.00;4950241;28;20034;-71
2021/06/02 04:26:33;;;;;;;0.90;0.75;;;;;;;25.46;41.15;95111.00;4962423;28;20598;-74
2021/06/02 04:29:06;;;;;;;1.15;0.70;;;;;;;25.40;40.98;95102.16;4951007;28;20039;-73
2021/06/02 04:31:31;;;;;;;1.30;0.77;;;;;;;25.52;40.90;95114.41;4963283;28;20474;-73
2021/06/02 04:33:57;;;;;;;1.40;0.60;;;;;;;25.58;41.09;95112.31;4966562;28;20043;-73
2021/06/02 04:36:24;;;;;;;1.08;0.55;;;;;;;25.65;41.00;95122.66;4966122;28;20030;-72
2021/06/02 04:38:49;;;;;;;0.95;0.57;;;;;;;25.61;40.65;95128.41;4965097;28;20040;-74
2021/06/02 04:41:14;;;;;;;1.20;0.70;;;;;;;25.30;40.58;95059.31;4947674;28;20031;-72
2021/06/02 04:43:40;;;;;;;1.13;0.65;;;;;;;25.72;40.90;95128.25;4949342;28;20507;-74
2021/06/02 04:46:07;;;;;;;2.08;0.60;;;;;;;25.82;40.57;95137.56;4931947;28;20034;-72
2021/06/02 04:48:33;;;;;;;1.23;0.70;;;;;;;25.45;40.59;95087.66;4966388;28;20829;-72
2021/06/02 04:51:18;;;;;;;0.98;0.63;;;;;;;25.82;40.53;95132.81;4948222;28;20085;-71
2021/06/02 04:53:55;;;;;;;0.80;0.60;;;;;;;25.92;40.94;95136.63;4942950;28;20054;-72
2021/06/02 04:56:38;;;;;;;1.20;0.70;;;;;;;25.86;40.89;95144.19;4963241;28;20035;-72
2021/06/02 04:59:54;;;;;;;1.33;0.88;;;;;;;25.92;40.94;95131.16;4967016;28;20018;-74
2021/06/02 05:02:57;;;;;;;1.92;1.00;;;;;;;26.02;41.31;95140.47;4870427;29;20489;-72
2021/06/02 05:05:32;;;;;;;1.27;1.00;;;;;;;26.02;40.75;95131.50;4875374;29;20091;-72
2021/06/02 05:08:01;;;;;;;1.67;1.10;;;;;;;26.09;41.46;95150.03;4929018;28;20046;-70
2021/06/02 05:10:32;;;;;;;1.92;0.90;;;;;;;26.06;41.70;95146.34;4967000;28;20038;-71
2021/06/02 05:13:16;;;;;;;1.58;0.95;;;;;;;26.16;41.17;95150.16;4962773;28;20150;-73
2021/06/02 05:16:06;;;;;;;4.85;1.90;;;;;;;26.07;39.65;95139.63;4950107;28;20130;-75
2021/06/02 05:18:54;;;;;;;2.80;2.20;;;;;;;25.81;39.55;95150.50;4962914;28;20035;-72
2021/06/02 05:22:07;;;;;;;1.85;1.33;;;;;;;25.60;40.92;95153.53;4965965;28;20029;-71
2021/06/02 05:25:10;;;;;;;2.53;1.60;;;;;;;25.87;40.91;95151.16;4932161;28;20039;-72
2021/06/02 05:28:25;;;;;;;3.67;1.65;;;;;;;25.94;40.73;95145.06;4965900;28;20023;-72
2021/06/02 05:31:28;;;;;;;3.03;1.30;;;;;;;25.99;41.30;95151.69;4891814;29;20075;-72
2021/06/02 05:34:11;;;;;;;2.40;1.45;;;;;;;25.97;41.24;95160.44;4965885;28;20038;-72
2021/06/02 05:36:37;;;;;;;2.22;1.30;;;;;;;26.19;41.20;95160.06;4967295;28;20019;-73
2021/06/02 05:39:35;;;;;;;3.10;1.70;;;;;;;26.15;41.37;95165.09;4967260;28;20066;-73
2021/06/02 05:42:12;;;;;;;2.20;1.52;;;;;;;26.12;41.37;95166.16;4966369;28;20572;-72
2021/06/02 05:45:02;;;;;;;3.45;1.55;;;;;;;26.03;41.92;95163.81;4967815;28;20031;-73
2021/06/02 05:47:48;;;;;;;4.13;1.30;;;;;;;26.06;42.48;95157.28;4966564;28;20034;-73
2021/06/02 05:50:50;;;;;;;2.35;1.40;;;;;;;26.08;41.83;95154.75;4967657;28;20105;-71
2021/06/02 05:53:34;;;;;;;3.05;1.42;;;;;;;26.12;41.76;95159.94;4966549;28;20096;-72
2021/06/02 05:56:30;;;;;;;3.33;1.50;;;;;;;26.18;41.56;95152.38;4954724;28;20489;-72
2021/06/02 05:59:04;;;;;;;2.60;1.55;;;;;;;26.22;41.42;95159.00;4969438;28;20038;-73
2021/06/02 06:01:52;;;;;;;2.42;1.50;;;;;;;26.27;41.38;95147.22;4967372;28;20433;-73
2021/06/02 06:04:31;;;;;;;1.50;1.30;;;;;;;26.39;41.02;95157.47;4967054;28;20047;-72
2021/06/02 06:07:23;;;;;;;2.90;1.42;;;;;;;26.41;40.85;95143.25;4952468;28;20029;-73
2021/06/02 06:10:26;;;;;;;3.22;1.40;;;;;;;26.44;40.70;95153.91;4948938;28;20031;-70
2021/06/02 06:13:23;;;;;;;2.38;1.48;;;;;;;26.34;41.14;95150.09;4967573;28;20038;-72
2021/06/02 06:16:07;;;;;;;2.60;1.58;;;;;;;26.28;40.76;95154.22;4966938;28;20049;-73
2021/06/02 06:18:41;;;;;;;2.55;1.55;;;;;;;26.50;40.61;95156.53;4949847;28;20117;-73
2021/06/02 06:21:28;;;;;;;3.33;1.50;;;;;;;26.43;40.75;95151.69;4962578;28;20109;-72
2021/06/02 06:23:59;;;;;;;4.45;2.40;;;;;;;26.35;40.59;95126.19;4963746;28;20113;-72
2021/06/02 06:26:34;;;;;;;3.55;1.77;;;;;;;26.49;40.67;95160.56;4952374;28;20035;-73
2021/06/02 06:29:13;;;;;;;5.68;1.60;;;;;;;26.54;40.50;95163.16;4964740;28;20038;-73
2021/06/02 06:31:41;;;;;;;6.90;2.25;;;;;;;26.58;40.32;95160.13;4965227;28;20411;-72
2021/06/02 06:34:09;;;;;;;4.88;2.00;;;;;;;26.58;40.61;95157.41;4969323;28;20578;-73
2021/06/02 06:36:34;;;;;;;4.38;2.00;;;;;;;26.54;40.22;95156.97;4933205;28;20023;-72
2021/06/02 06:39:25;;;;;;;4.25;2.17;;;;;;;26.57;40.69;95167.59;4950554;28;20565;-72
2021/06/02 06:41:50;;;;;;;6.75;1.73;;;;;;;26.16;40.35;95089.94;4969270;28;20035;-71
2021/06/02 06:44:16;;;;;;;4.05;2.03;;;;;;;26.74;40.02;95167.28;4967538;28;20055;-72
2021/06/02 06:46:42;;;;;;;4.60;2.35;;;;;;;26.63;40.25;95156.53;4957380;28;20034;-72
2021/06/02 06:49:09;;;;;;;6.88;2.10;;;;;;;26.69;40.35;95162.66;4961205;28;20045;-72
2021/06/02 06:51:35;;;;;;;7.00;2.38;;;;;;;26.62;40.47;95146.84;4955456;28;20037;-72
2021/06/02 06:54:00;;;;;;;6.10;1.80;;;;;;;26.64;40.79;95169.72;4964728;28;20035;-71
2021/06/02 06:56:26;;;;;;;5.13;2.60;;;;;;;26.76;41.91;95167.50;4963921;28;20030;-74
2021/06/02 06:58:52;;;;;;;7.55;2.75;;;;;;;26.22;41.77;95082.34;4968805;28;20046;-72
2021/06/02 07:01:17;;;;;;;4.57;2.10;;;;;;;25.98;41.38;95046.97;4965556;28;20034;-72
2021/06/02 07:03:43;;;;;;;5.50;2.40;;;;;;;26.77;42.62;95159.50;4957365;28;20058;-71
2021/06/02 07:06:11;;;;;;;7.35;2.95;;;;;;;26.84;42.86;95169.78;4933666;28;20032;-72
2021/06/02 07:08:36;;;;;;;8.85;2.90;;;;;;;26.31;43.08;95085.44;4954070;28;20057;-72
2021/06/02 07:11:02;;;;;;;9.23;3.00;;;;;;;26.87;43.55;95168.75;4935265;28;20821;-72
2021/06/02 07:13:28;;;;;;;7.47;2.72;;;;;;;25.90;43.94;95046.13;4951837;28;20027;-72
2021/06/02 07:15:54;;;;;;;8.50;2.92;;;;;;;26.83;43.83;95164.84;4950800;28;20058;-72
2021/06/02 07:18:20;;;;;;;5.00;2.50;;;;;;;26.80;43.52;95166.66;4966205;28;20027;-72
2021/06/02 07:20:45;;;;;;;6.88;2.85;;;;;;;26.67;43.70;95160.44;4912851;28;20597;-71
2021/06/02 07:23:11;;;;;;;7.07;2.78;;;;;;;26.52;43.46;95151.28;4950976;28;20429;-72
2021/06/02 07:25:36;;;;;;;7.05;2.60;;;;;;;26.20;43.51;95109.50;4985861;28;20053;-72
2021/06/02 07:28:04;;;;;;;8.13;2.97;;;;;;;26.34;43.26;95138.41;4967762;28;20113;-71
2021/06/02 07:30:29;;;;;;;7.05;2.50;;;;;;;26.36;43.31;95152.31;4951522;28;20022;-72
2021/06/02 07:32:55;;;;;;;6.45;2.47;;;;;;;26.30;43.43;95154.41;4987023;28;20510;-72
2021/06/02 07:35:20;;;;;;;6.22;2.58;;;;;;;26.09;43.30;95134.34;4988591;28;20030;-72
2021/06/02 07:37:46;;;;;;;7.10;2.30;;;;;;;26.08;43.86;95149.28;4987725;28;20033;-72
2021/06/02 07:40:12;;;;;;;8.88;2.70;;;;;;;25.56;43.41;95076.53;4988290;28;20030;-72
2021/06/02 07:42:37;;;;;;;6.65;2.88;;;;;;;25.98;43.75;95153.69;4987827;28;20042;-72
2021/06/02 07:45:04;;;;;;;6.25;2.80;;;;;;;25.85;43.69;95150.91;4988465;28;20026;-72
2021/06/02 07:47:30;;;;;;;6.18;2.58;;;;;;;25.88;43.57;95158.09;4987771;28;20038;-72
2021/06/02 07:49:55;;;;;;;4.47;2.45;;;;;;;25.80;43.81;95154.50;4988595;28;20038;-72
2021/06/02 07:52:21;;;;;;;6.57;2.72;;;;;;;25.22;43.42;95063.91;4988003;28;20057;-72
2021/06/02 07:54:46;;;;;;;4.38;3.15;;;;;;;25.70;44.00;95147.19;4970341;28;20041;-72
2021/06/02 07:57:12;;;;;;;6.65;3.13;;;;;;;25.62;43.98;95157.25;4987715;28;20089;-72
2021/06/02 07:59:37;;;;;;;7.07;2.92;;;;;;;25.52;44.06;95125.34;4988189;28;20082;-72
2021/06/02 08:02:03;;;;;;;5.78;2.53;;;;;;;25.57;44.09;95144.38;4987754;28;20037;-73
2021/06/02 08:04:30;;;;;;;5.97;2.83;;;;;;;25.53;43.99;95154.13;4988423;28;20050;-72
2021/06/02 08:06:55;;;;;;;6.50;2.70;;;;;;;25.46;44.25;95152.03;4987575;28;20036;-73
2021/06/02 08:09:21;;;;;;;6.80;2.60;;;;;;;25.42;44.36;95167.97;4987726;28;20030;-72
2021/06/02 08:11:47;;;;;;;6.00;3.08;;;;;;;25.34;44.05;95153.44;4987314;28;20069;-73
2021/06/02 08:14:12;;;;;;;6.07;2.72;;;;;;;25.40;44.33;95167.78;4988695;28;20092;-72
2021/06/02 08:16:38;;;;;;;5.50;2.28;;;;;;;25.27;44.04;95159.50;4987412;28;20038;-72
2021/06/02 08:19:03;;;;;;;5.18;2.55;;;;;;;25.28;44.18;95166.44;4987642;28;20033;-73
2021/06/02 08:21:29;;;;;;;5.38;2.78;;;;;;;25.24;44.42;95160.53;4986128;28;20045;-72
2021/06/02 08:23:54;;;;;;;7.47;2.90;;;;;;;25.11;44.34;95146.81;4970081;28;20040;-72
2021/06/02 08:26:20;;;;;;;4.72;2.60;;;;;;;25.19;44.25;95155.88;4970411;28;20026;-71
2021/06/02 08:28:45;;;;;;;5.75;2.78;;;;;;;24.88;44.25;95115.50;4985395;28;20494;-72
2021/06/02 08:31:11;;;;;;;5.35;2.70;;;;;;;25.12;44.49;95174.88;4987198;28;20042;-71
2021/06/02 08:33:36;;;;;;;5.28;2.83;;;;;;;25.10;44.32;95161.72;4985974;28;20030;-71
2021/06/02 08:36:02;;;;;;;5.65;2.70;;;;;;;25.07;44.25;95156.56;4986756;28;20038;-72
2021/06/02 08:38:27;;;;;;;5.22;2.80;;;;;;;25.07;44.50;95157.28;4987094;28;20582;-72
2021/06/02 08:40:52;;;;;;;5.38;2.80;;;;;;;24.97;44.32;95153.41;4988060;28;20056;-70
2021/06/02 08:43:21;;;;;;;5.40;2.80;;;;;;;24.99;44.15;95159.13;4953567;28;20510;-72
2021/06/02 08:45:47;;;;;;;5.65;2.97;;;;;;;24.89;44.55;95138.84;4988073;28;20169;-72
2021/06/02 08:48:13;;;;;;;5.15;3.00;;;;;;;24.93;44.61;95158.44;4969743;28;20145;-72
2021/06/02 08:50:38;;;;;;;5.57;2.63;;;;;;;24.92;44.79;95154.22;4987555;28;20516;-72
2021/06/02 08:53:04;;;;;;;5.25;2.60;;;;;;;24.92;44.58;95162.41;4969443;28;20070;-72
2021/06/02 08:55:29;;;;;;;5.32;2.63;;;;;;;24.91;44.60;95158.19;4986176;28;20084;-71
2021/06/02 08:57:55;;;;;;;5.78;2.80;;;;;;;24.90;44.32;95145.81;4986547;28;20034;-71
2021/06/02 09:00:22;;;;;;;4.82;2.92;;;;;;;24.91;44.52;95166.41;4983776;28;20030;-74
2021/06/02 09:02:53;;;;;;;6.88;2.88;;;;;;;24.85;44.06;95141.13;4987981;28;20030;-78
2021/06/02 09:05:18;;;;;;;4.95;2.60;;;;;;;24.95;44.68;95155.91;4956520;28;20089;-71
2021/06/02 09:07:44;;;;;;;4.78;2.65;;;;;;;24.87;44.28;95149.56;4969915;28;20030;-72
2021/06/02 09:10:11;;;;;;;5.07;2.50;;;;;;;24.96;44.82;95156.66;4968987;28;20027;-71
2021/06/02 09:12:39;;;;;;;5.68;2.90;;;;;;;25.00;44.83;95152.41;4976485;28;20092;-71
2021/06/02 09:15:12;;;;;;;5.78;2.63;;;;;;;25.01;44.65;95148.41;4969039;28;20031;-72
2021/06/02 09:17:58;;;;;;;5.07;2.47;;;;;;;25.06;44.03;95139.41;4967666;28;20518;-72
2021/06/02 09:20:37;;;;;;;6.15;2.80;;;;;;;25.14;43.28;95153.97;4960372;28;20018;-72
2021/06/02 09:23:28;;;;;;;7.35;2.80;;;;;;;25.17;41.16;95152.94;4984435;28;20038;-71
2021/06/02 09:26:14;;;;;;;5.30;3.38;;;;;;;25.23;41.17;95150.88;4983865;28;20037;-71
2021/06/02 09:28:59;;;;;;;4.32;2.35;;;;;;;25.44;42.02;95149.06;4980310;28;20117;-73
2021/06/02 09:31:26;;;;;;;3.55;2.30;;;;;;;25.56;41.99;95137.44;4981147;28;20030;-74
2021/06/02 09:33:53;;;;;;;5.53;2.40;;;;;;;25.16;41.52;95066.00;4985983;28;20030;-72
2021/06/02 09:36:24;;;;;;;5.03;2.08;;;;;;;25.77;41.66;95137.63;4980333;28;20034;-74
2021/06/02 09:38:53;;;;;;;5.43;2.20;;;;;;;25.22;41.40;95056.44;4987678;28;20034;-73
2021/06/02 09:41:19;;;;;;;4.30;2.58;;;;;;;25.94;41.39;95145.06;4977855;28;20033;-77
2021/06/02 09:43:45;;;;;;;3.85;2.13;;;;;;;26.09;41.03;95145.28;4972357;28;20050;-73
2021/06/02 09:46:13;;;;;;;5.25;2.53;;;;;;;26.20;40.78;95150.56;4981540;28;20422;-74
2021/06/02 09:48:51;;;;;;;4.75;2.28;;;;;;;26.22;40.90;95142.59;4989136;28;20405;-74
2021/06/02 09:51:35;;;;;;;5.53;2.22;;;;;;;26.22;41.03;95137.13;4988959;28;20030;-74
2021/06/02 09:54:02;;;;;;;3.25;2.17;;;;;;;26.30;40.83;95151.66;4986817;28;20030;-74
2021/06/02 09:56:34;;;;;;;3.72;2.33;;;;;;;26.12;40.42;95094.97;4983230;28;20030;-75
2021/06/02 09:59:00;;;;;;;3.38;2.00;;;;;;;26.42;40.70;95144.72;4946544;28;20053;-73
2021/06/02 10:01:25;;;;;;;4.05;2.10;;;;;;;26.45;40.38;95140.94;4980289;28;20022;-75
2021/06/02 10:03:51;;;;;;;3.72;2.17;;;;;;;25.92;39.97;95065.50;4971032;28;20046;-73
2021/06/02 10:06:17;;;;;;;3.95;2.28;;;;;;;26.10;39.82;95072.88;4976416;28;20047;-73
2021/06/02 10:08:56;;;;;;;4.35;2.42;;;;;;;26.63;40.58;95138.09;4981718;28;20050;-73
2021/06/02 10:11:27;;;;;;;4.70;1.90;;;;;;;25.79;40.34;95013.47;4973978;28;20073;-74
2021/06/02 10:13:52;;;;;;;2.92;2.00;;;;;;;26.76;39.76;95135.34;4965629;28;20038;-74
2021/06/02 10:16:40;;;;;;;3.33;1.73;;;;;;;26.73;40.24;95138.41;4978002;28;20100;-74
2021/06/02 10:19:06;;;;;;;3.78;1.90;;;;;;;26.79;39.71;95140.50;4965095;28;20030;-72
2021/06/02 10:21:45;;;;;;;4.40;1.67;;;;;;;26.70;40.19;95128.53;4987093;28;20030;-71
2021/06/02 10:24:11;;;;;;;6.25;2.00;;;;;;;26.86;39.89;95139.88;4982874;28;20022;-74
2021/06/02 10:26:38;;;;;;;3.78;1.92;;;;;;;26.88;39.67;95137.34;4980816;28;20069;-73
2021/06/02 10:29:04;;;;;;;5.68;2.15;;;;;;;26.92;39.93;95142.50;4986303;28;20530;-74
2021/06/02 10:31:29;;;;;;;3.53;1.80;;;;;;;27.03;39.76;95148.50;4984816;28;20030;-70
2021/06/02 10:33:54;;;;;;;3.03;1.60;;;;;;;26.96;40.25;95143.66;4987112;28;20498;-70
2021/06/02 10:36:20;;;;;;;3.60;1.95;;;;;;;26.86;40.21;95134.41;4983580;28;20015;-71
2021/06/02 10:38:50;;;;;;;3.97;2.10;;;;;;;26.39;39.91;95069.09;4941689;28;20049;-70
2021/06/02 10:41:19;;;;;;;;;;;;;;;26.76;39.64;95136.09;4988670;28;20026;-71
2021/06/02 10:43:50;;;;;;;7.30;2.35;;;;;;;26.30;39.87;95066.78;4971437;28;19994;-72
2021/06/02 10:46:15;;;;;;;4.47;1.88;;;;;;;26.47;39.74;95094.59;4972248;28;20026;-72
2021/06/02 10:48:48;;;;;;;3.35;1.83;;;;;;;26.73;39.68;95141.16;4971652;28;20033;-72
2021/06/02 10:51:37;;;;;;;3.80;1.83;;;;;;;26.63;39.69;95148.31;4989667;28;20057;-72
2021/06/02 10:54:06;;;;;;;3.83;2.17;;;;;;;26.57;40.15;95150.44;4979620;28;20050;-72
2021/06/02 10:56:32;;;;;;;2.85;2.00;;;;;;;25.76;39.88;95041.16;4989396;28;20030;-71
2021/06/02 10:58:58;;;;;;;2.70;1.75;;;;;;;26.42;40.10;95144.72;4955219;28;20041;-72
2021/06/02 11:01:23;;;;;;;2.75;1.73;;;;;;;25.47;40.09;95030.44;4988125;28;20034;-72
2021/06/02 11:04:10;;;;;;;3.47;1.90;;;;;;;26.21;40.46;95146.56;4968179;28;20063;-71
2021/06/02 11:06:37;;;;;;;2.70;1.55;;;;;;;25.93;40.46;95116.22;4970162;28;20062;-71
2021/06/02 11:09:04;;;;;;;3.10;2.00;;;;;;;26.04;40.55;95154.34;4969251;28;20049;-71
2021/06/02 11:11:33;;;;;;;2.92;1.83;;;;;;;25.95;40.65;95135.59;4968783;28;20458;-71
2021/06/02 11:14:18;;;;;;;3.25;1.90;;;;;;;26.03;40.87;95150.13;4964720;28;20069;-71
2021/06/02 11:16:49;;;;;;;2.90;1.73;;;;;;;26.02;40.66;95156.13;4962665;28;20038;-72
2021/06/02 11:19:15;;;;;;;3.10;1.75;;;;;;;25.87;41.07;95155.88;4968135;28;20143;-71
2021/06/02 11:21:55;;;;;;;3.47;1.77;;;;;;;25.84;41.24;95152.19;4963420;28;20042;-71
2021/06/02 11:24:33;;;;;;;;;;;;;;;25.69;41.56;95150.47;4964420;28;20038;-72
2021/06/02 11:27:11;;;;;;;2.80;1.92;;;;;;;25.67;41.38;95147.50;4966087;28;19914;-70
2021/06/02 11:29:49;;;;;;;4.05;2.00;;;;;;;25.64;41.53;95148.53;4964052;28;20121;-72
2021/06/02 11:32:18;;;;;;;2.75;1.80;;;;;;;25.60;41.67;95156.28;4964171;28;20045;-71
2021/06/02 11:34:46;;;;;;;3.75;1.80;;;;;;;25.61;41.95;95152.28;4968234;28;20052;-73
2021/06/02 11:37:15;;;;;;;4.28;1.77;;;;;;;24.98;41.71;95053.78;4964765;28;20077;-71
2021/06/02 11:39:41;;;;;;;2.78;1.70;;;;;;;25.62;41.80;95134.63;4964404;28;20047;-71
2021/06/02 11:42:27;;;;;;;2.65;1.50;;;;;;;25.60;41.13;95137.13;4966234;28;20034;-71
2021/06/02 11:44:59;;;;;;;3.35;1.80;;;;;;;25.55;41.64;95140.69;4963599;28;20075;-71
2021/06/02 11:47:25;;;;;;;2.72;1.88;;;;;;;24.96;41.76;95080.91;4959635;28;20058;-71
2021/06/02 11:49:50;;;;;;;3.65;1.90;;;;;;;25.32;41.85;95117.69;4949546;29;20067;-70
2021/06/02 11:52:19;;;;;;;3.38;1.88;;;;;;;25.51;42.09;95119.09;4956294;28;20033;-70
2021/06/02 11:54:47;;;;;;;2.42;1.58;;;;;;;25.79;41.79;95139.31;4967887;28;20404;-71
2021/06/02 11:57:28;;;;;;;2.85;1.75;;;;;;;25.87;41.79;95139.44;4950100;28;20038;-70
2021/06/02 12:00:17;;;;;;;2.50;1.73;;;;;;;25.80;41.80;95129.13;4950164;29;20031;-79
2021/06/02 12:02:43;;;;;;;3.40;2.00;;;;;;;25.60;41.71;95139.88;4951294;28;20499;-74
2021/06/02 12:05:30;;;;;;;3.92;2.13;;;;;;;25.49;41.99;95131.84;4968915;28;20030;-73